Aérodrome :
LOGIN :

S'inscrire | Disclaimer

   EN    FR    IT 

 










Légende :    VFR   VFR Marginal   IFR   IFR Intensif   IFR Très Intensif
Visi : 
Plafond : 
>= 8 km
>= 3000ft
5 à 8 km
1000 à 3000 ft
1500m à 5 km
500 à 1000 ft
800 à 1500m
200 à 500 ft
< 800m
< 200 ft
Symboles :   Orages  Brouillard  Fortes neiges  Fortes précipitations  Vent > 20 kt
SIGMETs :   Divers  Orages  Givrage  Turbulence  Onde Orograph.  Cendres Volcan.







- Altitude de l'aérodrome : 461 ft
- Code IATA : WIE


ETOU - Wiesbaden Army

DERNIER METAR :
  • 230556Z AUTO 08008KT 9999 CLR 02/M02 A3070 RMK AO2 SLP403 T00211021 10059 20021 53002 $

METARs EXPIRÉS :
  • 230536Z AUTO 09010KT 9999 FEW020 02/M02 A3069 RMK AO2 SLP400 $
  • 230456Z AUTO 09007KT 9999 BKN021 03/M02 A3070 RMK AO2 SLP403 T00291017 $
  • 230446Z AUTO 09008KT 9999 BKN021 03/M02 A3069 RMK AO2 BKN V SCT SLP399 $
  • 230416Z AUTO 09009KT 9999 SCT021 03/M01 A3069 RMK AO2 SLP399 $
  • 230356Z AUTO 10010KT 9999 OVC021 03/M01 A3068 RMK AO2 SLP396 T00341008 $

TAF TAF ETOU
Valide du 23 à 04h jusqu'au 24 à 10h UTC


230403Z 2304/2410 08009KT 9999 SCT015 QNH3065INS
BECMG 2309/2310 09009KT 9999 SKC QNH3062INS
BECMG 2316/2317 VRB06KT 9999 SKC QNH3061INS TX08/2315Z TNM01/2404Z
Pas de NOTAMs connus pour ce terrain.



MET'MAP, la Météo Aéronautique d'un coup d'oeil ! - Copyright ORBIFLY Décembre 2007 - Disclaimer

ORBIFLY MET'MAP TEAM :

Programmation & Développement : Alexandra Zaïnal
Conception & Développement : Baudouin d'Aumeries
Co-Programmation & Développement : Marc-Olivier Méhu
Soutien technique & logistique : Manuel Goepfert

Contact : metmap@orbifly.com




SOURCES & CREDITS :

   NOAA